^^
TXWeather Station Historical Data
Daily Summary for May 09, 2022 Units:  English    Metric   Both
Daily Weekly Monthly Yearly Custom
  High: Low: Average:
Temperature: 93.0 °F 78.0 °F 84.3 °F
Dew Point: 78.0 °F 72.0 °F 74.4 °F
Humidity: 84% 57% 73%
Wind Speed: 21mph 4mph 11.1mph
Wind Gust: 21mph - -
Wind- - SE
Pressure: 30.0 in 29.8 in -
Precipitation: 0.000 in    
Historical Graphs
 
 
Tabular Data for May 09, 2022
Time Temperature Dew Point Pressure Wind Wind Speed Wind Gust Humidity Rainfall Rate (Hourly) solar
00:04 79.0 °F 72.0 °F 29.8 in SSE 7 mph 14 mph 79% 0.000 in 0.00 W/m2
00:09 79.0 °F 72.0 °F 29.8 in SSE 7 mph 9 mph 79% 0.000 in 0.00 W/m2
00:14 79.0 °F 72.0 °F 29.8 in SE 10 mph 10 mph 79% 0.000 in 0.00 W/m2
00:19 79.0 °F 73.0 °F 29.8 in SSE 10 mph 12 mph 80% 0.000 in 0.00 W/m2
00:24 79.0 °F 73.0 °F 29.8 in SSE 8 mph 10 mph 80% 0.000 in 0.00 W/m2
00:29 79.0 °F 73.0 °F 29.8 in SE 13 mph 14 mph 80% 0.000 in 0.00 W/m2
00:34 79.0 °F 73.0 °F 29.8 in SSE 5 mph 9 mph 80% 0.000 in 0.00 W/m2
00:39 79.0 °F 73.0 °F 29.8 in SSE 8 mph 10 mph 80% 0.000 in 0.00 W/m2
00:44 79.0 °F 73.0 °F 29.8 in SSE 10 mph 13 mph 81% 0.000 in 0.00 W/m2
00:49 79.0 °F 73.0 °F 29.8 in SE 5 mph 7 mph 81% 0.000 in 0.00 W/m2
00:54 79.0 °F 73.0 °F 29.8 in SSE 7 mph 8 mph 81% 0.000 in 0.00 W/m2
00:59 79.0 °F 73.0 °F 29.8 in SSE 9 mph 9 mph 81% 0.000 in 0.00 W/m2
01:04 79.0 °F 73.0 °F 29.8 in SSE 9 mph 9 mph 82% 0.000 in 0.00 W/m2
01:09 79.0 °F 73.0 °F 29.8 in SSE 7 mph 8 mph 82% 0.000 in 0.00 W/m2
01:14 79.0 °F 73.0 °F 29.8 in SSE 8 mph 9 mph 82% 0.000 in 0.00 W/m2
01:19 79.0 °F 73.0 °F 29.8 in SSE 10 mph 12 mph 82% 0.000 in 0.00 W/m2
01:24 79.0 °F 73.0 °F 29.8 in SSE 7 mph 7 mph 83% 0.000 in 0.00 W/m2
01:29 79.0 °F 73.0 °F 29.8 in SSE 10 mph 12 mph 83% 0.000 in 0.00 W/m2
01:34 79.0 °F 73.0 °F 29.8 in SSE 9 mph 12 mph 83% 0.000 in 0.00 W/m2
01:39 79.0 °F 73.0 °F 29.8 in SSE 11 mph 11 mph 83% 0.000 in 0.00 W/m2
01:44 79.0 °F 73.0 °F 29.8 in SSE 9 mph 12 mph 83% 0.000 in 0.00 W/m2
01:49 79.0 °F 73.0 °F 29.8 in SSE 8 mph 9 mph 83% 0.000 in 0.00 W/m2
01:54 79.0 °F 73.0 °F 29.8 in SSE 8 mph 9 mph 83% 0.000 in 0.00 W/m2
01:59 79.0 °F 73.0 °F 29.8 in SSE 9 mph 9 mph 83% 0.000 in 0.00 W/m2
02:04 79.0 °F 73.0 °F 29.8 in SE 10 mph 11 mph 83% 0.000 in 0.00 W/m2
02:09 79.0 °F 73.0 °F 29.8 in SSE 9 mph 9 mph 83% 0.000 in 0.00 W/m2
02:14 79.0 °F 73.0 °F 29.8 in SSE 8 mph 10 mph 83% 0.000 in 0.00 W/m2
02:19 79.0 °F 73.0 °F 29.8 in SSE 9 mph 10 mph 83% 0.000 in 0.00 W/m2
02:24 79.0 °F 73.0 °F 29.8 in SSE 9 mph 10 mph 83% 0.000 in 0.00 W/m2
02:34 79.0 °F 73.0 °F 29.8 in SSE 6 mph 12 mph 83% 0.000 in 0.00 W/m2
02:39 79.0 °F 73.0 °F 29.8 in SSE 7 mph 10 mph 83% 0.000 in 0.00 W/m2
02:44 79.0 °F 73.0 °F 29.8 in SSE 8 mph 10 mph 83% 0.000 in 0.00 W/m2
02:49 79.0 °F 73.0 °F 29.8 in SSE 8 mph 10 mph 83% 0.000 in 0.00 W/m2
02:54 79.0 °F 73.0 °F 29.8 in SSE 8 mph 9 mph 83% 0.000 in 0.00 W/m2
02:59 78.0 °F 73.0 °F 29.8 in SSE 7 mph 8 mph 83% 0.000 in 0.00 W/m2
03:04 78.0 °F 73.0 °F 29.8 in SSE 8 mph 9 mph 83% 0.000 in 0.00 W/m2
03:09 78.0 °F 73.0 °F 29.8 in SSE 8 mph 9 mph 83% 0.000 in 0.00 W/m2
03:14 78.0 °F 73.0 °F 29.8 in SSE 10 mph 11 mph 83% 0.000 in 0.00 W/m2
03:19 78.0 °F 73.0 °F 29.8 in SE 11 mph 11 mph 83% 0.000 in 0.00 W/m2
03:24 78.0 °F 73.0 °F 29.8 in SSE 7 mph 7 mph 83% 0.000 in 0.00 W/m2
03:29 78.0 °F 73.0 °F 29.8 in SE 7 mph 11 mph 83% 0.000 in 0.00 W/m2
03:34 78.0 °F 73.0 °F 29.8 in SSE 7 mph 11 mph 83% 0.000 in 0.00 W/m2
03:39 78.0 °F 73.0 °F 29.8 in SSE 9 mph 9 mph 83% 0.000 in 0.00 W/m2
03:44 78.0 °F 73.0 °F 29.8 in SSE 6 mph 9 mph 83% 0.000 in 0.00 W/m2
03:49 78.0 °F 73.0 °F 29.8 in SSE 8 mph 8 mph 83% 0.000 in 0.00 W/m2
03:54 78.0 °F 73.0 °F 29.8 in SSE 9 mph 10 mph 84% 0.000 in 0.00 W/m2
03:59 78.0 °F 73.0 °F 29.8 in SSE 5 mph 10 mph 84% 0.000 in 0.00 W/m2
04:04 78.0 °F 73.0 °F 29.8 in SE 8 mph 8 mph 84% 0.000 in 0.00 W/m2
04:09 78.0 °F 73.0 °F 29.8 in SSE 8 mph 9 mph 84% 0.000 in 0.00 W/m2
04:14 78.0 °F 73.0 °F 29.8 in SSE 9 mph 10 mph 84% 0.000 in 0.00 W/m2
04:19 78.0 °F 73.0 °F 29.8 in SSE 7 mph 10 mph 84% 0.000 in 0.00 W/m2
04:24 78.0 °F 73.0 °F 29.8 in SSE 8 mph 9 mph 84% 0.000 in 0.00 W/m2
04:29 78.0 °F 73.0 °F 29.8 in SSE 4 mph 6 mph 84% 0.000 in 0.00 W/m2
04:34 78.0 °F 73.0 °F 29.8 in SSE 10 mph 12 mph 84% 0.000 in 0.00 W/m2
04:39 78.0 °F 73.0 °F 29.8 in SSE 10 mph 12 mph 84% 0.000 in 0.00 W/m2
04:44 78.0 °F 73.0 °F 29.8 in SSE 6 mph 9 mph 84% 0.000 in 0.00 W/m2
04:49 78.0 °F 73.0 °F 29.8 in SSE 9 mph 9 mph 84% 0.000 in 0.00 W/m2
04:54 78.0 °F 73.0 °F 29.8 in SSE 6 mph 8 mph 84% 0.000 in 0.00 W/m2
04:59 78.0 °F 73.0 °F 29.8 in SSE 11 mph 11 mph 84% 0.000 in 0.00 W/m2
05:04 78.0 °F 73.0 °F 29.8 in SSE 9 mph 11 mph 84% 0.000 in 0.00 W/m2
05:09 78.0 °F 73.0 °F 29.8 in SSE 11 mph 11 mph 84% 0.000 in 0.00 W/m2
05:14 78.0 °F 73.0 °F 29.8 in SSE 7 mph 8 mph 84% 0.000 in 0.00 W/m2
05:19 78.0 °F 73.0 °F 29.8 in SSE 9 mph 9 mph 84% 0.000 in 0.00 W/m2
05:24 78.0 °F 73.0 °F 29.8 in SSE 7 mph 7 mph 84% 0.000 in 0.00 W/m2
05:29 78.0 °F 73.0 °F 29.8 in SSE 8 mph 8 mph 84% 0.000 in 0.00 W/m2
05:34 78.0 °F 73.0 °F 29.8 in SSE 9 mph 9 mph 84% 0.000 in 0.00 W/m2
05:39 78.0 °F 73.0 °F 29.8 in SSE 10 mph 10 mph 84% 0.000 in 0.00 W/m2
05:44 78.0 °F 73.0 °F 29.8 in SE 10 mph 11 mph 84% 0.000 in 0.00 W/m2
05:49 78.0 °F 73.0 °F 29.8 in SSE 12 mph 12 mph 83% 0.000 in 0.00 W/m2
05:54 78.0 °F 73.0 °F 29.8 in SSE 12 mph 12 mph 83% 0.000 in 0.00 W/m2
05:59 78.0 °F 73.0 °F 29.8 in SSE 14 mph 15 mph 83% 0.000 in 0.00 W/m2
06:04 78.0 °F 73.0 °F 29.8 in SSE 10 mph 15 mph 83% 0.000 in 0.00 W/m2
06:09 78.0 °F 73.0 °F 29.8 in SSE 12 mph 12 mph 83% 0.000 in 0.00 W/m2
06:14 78.0 °F 73.0 °F 29.8 in SE 9 mph 12 mph 83% 0.000 in 0.00 W/m2
06:19 78.0 °F 73.0 °F 29.8 in SE 8 mph 10 mph 83% 0.000 in 0.00 W/m2
06:24 78.0 °F 73.0 °F 29.8 in SSE 9 mph 13 mph 82% 0.000 in 0.00 W/m2
06:29 78.0 °F 73.0 °F 29.8 in SSE 7 mph 9 mph 82% 0.000 in 0.00 W/m2
06:34 78.0 °F 73.0 °F 29.8 in SSE 6 mph 7 mph 82% 0.000 in 0.00 W/m2
06:39 78.0 °F 73.0 °F 29.8 in SSE 8 mph 9 mph 82% 0.000 in 0.00 W/m2
06:44 79.0 °F 73.0 °F 29.8 in SSE 8 mph 10 mph 82% 0.000 in 5.00 W/m2
06:49 79.0 °F 73.0 °F 29.8 in South 7 mph 8 mph 82% 0.000 in 9.00 W/m2
06:54 79.0 °F 73.0 °F 29.8 in SSE 6 mph 7 mph 82% 0.000 in 12.00 W/m2
06:59 79.0 °F 73.0 °F 29.8 in SE 10 mph 11 mph 82% 0.000 in 16.00 W/m2
07:04 79.0 °F 73.0 °F 29.8 in SE 9 mph 9 mph 82% 0.000 in 19.00 W/m2
07:09 79.0 °F 73.0 °F 29.8 in SE 7 mph 9 mph 82% 0.000 in 23.00 W/m2
07:14 79.0 °F 73.0 °F 29.8 in SE 10 mph 12 mph 82% 0.000 in 28.00 W/m2
07:19 79.0 °F 73.0 °F 29.8 in SSE 8 mph 12 mph 82% 0.000 in 39.00 W/m2
07:24 79.0 °F 73.0 °F 29.8 in SSE 5 mph 8 mph 82% 0.000 in 49.00 W/m2
07:29 79.0 °F 73.0 °F 29.8 in SE 11 mph 11 mph 82% 0.000 in 54.00 W/m2
07:34 79.0 °F 73.0 °F 29.8 in SE 12 mph 12 mph 81% 0.000 in 56.00 W/m2
07:39 79.0 °F 73.0 °F 29.8 in SSE 8 mph 9 mph 81% 0.000 in 69.00 W/m2
07:44 79.0 °F 73.0 °F 29.8 in SE 11 mph 12 mph 81% 0.000 in 86.00 W/m2
07:49 79.0 °F 73.0 °F 29.8 in SE 11 mph 14 mph 81% 0.000 in 86.00 W/m2
07:54 80.0 °F 73.0 °F 29.9 in SE 12 mph 14 mph 81% 0.000 in 81.00 W/m2
07:59 80.0 °F 73.0 °F 29.9 in SSE 10 mph 10 mph 80% 0.000 in 93.00 W/m2
08:04 80.0 °F 73.0 °F 29.9 in SSE 17 mph 17 mph 80% 0.000 in 90.00 W/m2
08:09 80.0 °F 73.0 °F 29.9 in SSE 10 mph 10 mph 79% 0.000 in 93.00 W/m2
08:14 80.0 °F 73.0 °F 29.9 in SE 15 mph 15 mph 79% 0.000 in 91.00 W/m2
08:19 80.0 °F 73.0 °F 29.9 in SE 13 mph 13 mph 78% 0.000 in 86.00 W/m2
08:24 80.0 °F 73.0 °F 29.9 in SE 13 mph 13 mph 78% 0.000 in 79.00 W/m2
08:29 80.0 °F 73.0 °F 29.9 in SE 14 mph 17 mph 77% 0.000 in 81.00 W/m2
08:34 81.0 °F 73.0 °F 29.9 in SE 12 mph 15 mph 77% 0.000 in 90.00 W/m2
08:39 81.0 °F 73.0 °F 29.9 in SSE 11 mph 12 mph 78% 0.000 in 111.00 W/m2
08:44 81.0 °F 73.0 °F 29.9 in SSE 8 mph 10 mph 78% 0.000 in 97.00 W/m2
08:49 81.0 °F 74.0 °F 29.9 in SSE 9 mph 10 mph 78% 0.000 in 229.00 W/m2
08:54 81.0 °F 74.0 °F 29.9 in SE 13 mph 13 mph 78% 0.000 in 294.00 W/m2
08:59 82.0 °F 74.0 °F 29.9 in SSE 9 mph 9 mph 78% 0.000 in 323.00 W/m2
09:04 82.0 °F 74.0 °F 29.9 in SE 12 mph 15 mph 78% 0.000 in 306.00 W/m2
09:09 82.0 °F 74.0 °F 29.9 in SE 13 mph 15 mph 77% 0.000 in 302.00 W/m2
09:14 82.0 °F 74.0 °F 29.9 in SE 13 mph 13 mph 76% 0.000 in 318.00 W/m2
09:19 83.0 °F 74.0 °F 29.9 in SE 13 mph 17 mph 76% 0.000 in 371.00 W/m2
09:24 83.0 °F 74.0 °F 29.9 in SE 12 mph 15 mph 74% 0.000 in 410.00 W/m2
09:29 83.0 °F 74.0 °F 29.9 in SE 13 mph 15 mph 73% 0.000 in 418.00 W/m2
09:34 84.0 °F 74.0 °F 29.9 in SSE 11 mph 15 mph 74% 0.000 in 434.00 W/m2
09:39 84.0 °F 74.0 °F 29.9 in SSE 12 mph 15 mph 73% 0.000 in 439.00 W/m2
09:44 84.0 °F 74.0 °F 29.9 in SE 12 mph 12 mph 73% 0.000 in 459.00 W/m2
09:49 84.0 °F 74.0 °F 29.9 in SE 10 mph 13 mph 72% 0.000 in 454.00 W/m2
09:54 85.0 °F 75.0 °F 29.9 in SE 13 mph 15 mph 72% 0.000 in 452.00 W/m2
09:59 85.0 °F 74.0 °F 29.9 in SE 12 mph 15 mph 71% 0.000 in 464.00 W/m2
10:04 85.0 °F 75.0 °F 29.9 in SE 10 mph 12 mph 71% 0.000 in 476.00 W/m2
10:09 85.0 °F 75.0 °F 29.9 in SE 10 mph 13 mph 71% 0.000 in 515.00 W/m2
10:14 86.0 °F 75.0 °F 29.9 in SE 12 mph 15 mph 70% 0.000 in 591.00 W/m2
10:19 86.0 °F 75.0 °F 29.9 in SE 11 mph 15 mph 70% 0.000 in 635.00 W/m2
10:24 86.0 °F 75.0 °F 29.9 in SE 12 mph 14 mph 69% 0.000 in 657.00 W/m2
10:29 86.0 °F 75.0 °F 29.9 in SE 12 mph 15 mph 69% 0.000 in 675.00 W/m2
10:34 87.0 °F 75.0 °F 29.9 in SSE 11 mph 12 mph 68% 0.000 in 687.00 W/m2
10:39 87.0 °F 75.0 °F 29.9 in SE 14 mph 15 mph 68% 0.000 in 698.00 W/m2
10:44 87.0 °F 75.0 °F 29.9 in SSE 12 mph 13 mph 67% 0.000 in 708.00 W/m2
10:49 87.0 °F 75.0 °F 29.9 in SE 12 mph 15 mph 67% 0.000 in 729.00 W/m2
10:54 87.0 °F 75.0 °F 29.9 in SE 9 mph 12 mph 67% 0.000 in 738.00 W/m2
10:59 88.0 °F 75.0 °F 29.9 in SE 10 mph 12 mph 66% 0.000 in 752.00 W/m2
11:04 88.0 °F 75.0 °F 29.9 in SSE 11 mph 12 mph 66% 0.000 in 759.00 W/m2
11:09 88.0 °F 75.0 °F 29.9 in SSE 12 mph 13 mph 66% 0.000 in 777.00 W/m2
11:14 88.0 °F 75.0 °F 29.9 in SE 11 mph 13 mph 65% 0.000 in 786.00 W/m2
11:19 89.0 °F 75.0 °F 29.9 in SE 13 mph 13 mph 64% 0.000 in 791.00 W/m2
11:24 89.0 °F 74.0 °F 29.9 in SE 15 mph 15 mph 63% 0.000 in 807.00 W/m2
11:29 89.0 °F 75.0 °F 29.9 in SE 16 mph 16 mph 64% 0.000 in 817.00 W/m2
11:34 89.0 °F 75.0 °F 29.9 in SE 13 mph 13 mph 64% 0.000 in 830.00 W/m2
11:39 89.0 °F 75.0 °F 29.9 in SE 13 mph 14 mph 63% 0.000 in 838.00 W/m2
11:44 89.0 °F 75.0 °F 29.9 in SE 9 mph 13 mph 63% 0.000 in 844.00 W/m2
11:49 90.0 °F 76.0 °F 29.9 in SE 13 mph 14 mph 63% 0.000 in 856.00 W/m2
11:54 90.0 °F 75.0 °F 29.9 in SE 14 mph 14 mph 62% 0.000 in 874.00 W/m2
11:59 90.0 °F 75.0 °F 29.9 in SE 11 mph 15 mph 61% 0.000 in 882.00 W/m2
12:04 90.0 °F 75.0 °F 29.9 in SSE 20 mph 20 mph 62% 0.000 in 884.00 W/m2
12:09 91.0 °F 75.0 °F 29.9 in SE 14 mph 16 mph 61% 0.000 in 891.00 W/m2
12:14 91.0 °F 76.0 °F 29.9 in SE 17 mph 17 mph 61% 0.000 in 896.00 W/m2
12:19 91.0 °F 76.0 °F 29.9 in SE 13 mph 16 mph 61% 0.000 in 912.00 W/m2
12:24 91.0 °F 76.0 °F 29.9 in SE 11 mph 16 mph 61% 0.000 in 940.00 W/m2
12:29 91.0 °F 76.0 °F 29.9 in SE 10 mph 12 mph 61% 0.000 in 926.00 W/m2
12:34 92.0 °F 77.0 °F 29.9 in SE 15 mph 17 mph 62% 0.000 in 921.00 W/m2
12:39 92.0 °F 76.0 °F 29.9 in SE 10 mph 17 mph 60% 0.000 in 935.00 W/m2
12:44 92.0 °F 76.0 °F 29.9 in SSE 14 mph 17 mph 60% 0.000 in 933.00 W/m2
12:49 92.0 °F 76.0 °F 29.9 in SSE 15 mph 15 mph 59% 0.000 in 937.00 W/m2
12:54 92.0 °F 76.0 °F 29.9 in SE 11 mph 14 mph 59% 0.000 in 925.00 W/m2
12:59 93.0 °F 76.0 °F 29.9 in SSE 15 mph 19 mph 59% 0.000 in 925.00 W/m2
13:04 93.0 °F 76.0 °F 29.9 in SE 13 mph 19 mph 58% 0.000 in 932.00 W/m2
13:09 93.0 °F 76.0 °F 29.9 in SE 13 mph 15 mph 58% 0.000 in 930.00 W/m2
13:14 93.0 °F 75.0 °F 29.9 in SE 14 mph 16 mph 57% 0.000 in 940.00 W/m2
13:19 92.0 °F 75.0 °F 29.9 in SSE 11 mph 13 mph 58% 0.000 in 935.00 W/m2
13:24 92.0 °F 76.0 °F 29.9 in SE 16 mph 16 mph 59% 0.000 in 926.00 W/m2
13:29 93.0 °F 76.0 °F 29.9 in SE 11 mph 16 mph 58% 0.000 in 960.00 W/m2
13:34 93.0 °F 76.0 °F 29.9 in SE 12 mph 13 mph 58% 0.000 in 972.00 W/m2
13:39 93.0 °F 76.0 °F 29.9 in SE 11 mph 15 mph 59% 0.000 in 977.00 W/m2
13:44 93.0 °F 76.0 °F 29.9 in SE 16 mph 18 mph 59% 0.000 in 965.00 W/m2
13:49 93.0 °F 76.0 °F 29.9 in SSE 12 mph 18 mph 59% 0.000 in 1011.00 W/m2
13:54 93.0 °F 76.0 °F 29.9 in SSE 14 mph 15 mph 59% 0.000 in 1011.00 W/m2
13:59 93.0 °F 77.0 °F 29.9 in SE 15 mph 15 mph 60% 0.000 in 1018.00 W/m2
14:04 93.0 °F 77.0 °F 29.9 in SE 14 mph 17 mph 59% 0.000 in 956.00 W/m2
14:09 93.0 °F 77.0 °F 29.9 in SE 11 mph 13 mph 60% 0.000 in 972.00 W/m2
14:14 93.0 °F 77.0 °F 29.9 in SSE 12 mph 13 mph 59% 0.000 in 930.00 W/m2
14:19 93.0 °F 77.0 °F 29.9 in SSE 13 mph 14 mph 59% 0.000 in 970.00 W/m2
14:24 93.0 °F 77.0 °F 29.9 in SE 13 mph 14 mph 59% 0.000 in 970.00 W/m2
14:29 93.0 °F 77.0 °F 29.9 in SSE 13 mph 14 mph 60% 0.000 in 997.00 W/m2
14:34 93.0 °F 77.0 °F 29.9 in SE 14 mph 17 mph 60% 0.000 in 956.00 W/m2
14:39 93.0 °F 77.0 °F 29.9 in SE 16 mph 17 mph 59% 0.000 in 939.00 W/m2
14:44 93.0 °F 77.0 °F 29.9 in SSE 15 mph 16 mph 60% 0.000 in 900.00 W/m2
14:49 93.0 °F 77.0 °F 29.9 in SE 14 mph 16 mph 60% 0.000 in 939.00 W/m2
14:54 93.0 °F 77.0 °F 29.9 in SE 13 mph 17 mph 60% 0.000 in 939.00 W/m2
14:59 93.0 °F 77.0 °F 29.9 in SSE 11 mph 16 mph 60% 0.000 in 909.00 W/m2
15:04 93.0 °F 77.0 °F 29.9 in SSE 15 mph 16 mph 60% 0.000 in 909.00 W/m2
15:09 93.0 °F 77.0 °F 29.9 in SSE 13 mph 16 mph 60% 0.000 in 923.00 W/m2
15:14 93.0 °F 77.0 °F 29.9 in SE 13 mph 14 mph 60% 0.000 in 895.00 W/m2
15:19 93.0 °F 77.0 °F 29.9 in SSE 15 mph 15 mph 60% 0.000 in 895.00 W/m2
15:24 93.0 °F 77.0 °F 29.9 in SE 14 mph 15 mph 60% 0.000 in 916.00 W/m2
15:29 93.0 °F 77.0 °F 29.9 in SE 12 mph 12 mph 61% 0.000 in 851.00 W/m2
15:34 93.0 °F 78.0 °F 29.9 in SSE 15 mph 15 mph 62% 0.000 in 828.00 W/m2
15:39 93.0 °F 77.0 °F 29.9 in SSE 12 mph 15 mph 61% 0.000 in 837.00 W/m2
15:44 93.0 °F 77.0 °F 29.9 in SE 15 mph 19 mph 60% 0.000 in 826.00 W/m2
15:49 93.0 °F 77.0 °F 29.9 in SE 10 mph 19 mph 60% 0.000 in 819.00 W/m2
15:54 93.0 °F 77.0 °F 29.9 in SE 14 mph 15 mph 60% 0.000 in 798.00 W/m2
15:59 93.0 °F 77.0 °F 29.9 in SE 16 mph 21 mph 60% 0.000 in 816.00 W/m2
16:04 93.0 °F 77.0 °F 29.9 in SSE 15 mph 18 mph 59% 0.000 in 791.00 W/m2
16:09 93.0 °F 77.0 °F 29.9 in SE 11 mph 15 mph 59% 0.000 in 735.00 W/m2
16:14 93.0 °F 77.0 °F 29.9 in SE 14 mph 17 mph 59% 0.000 in 756.00 W/m2
16:19 93.0 °F 77.0 °F 29.9 in SE 15 mph 17 mph 59% 0.000 in 738.00 W/m2
16:24 93.0 °F 77.0 °F 29.9 in SSE 13 mph 15 mph 60% 0.000 in 737.00 W/m2
16:29 93.0 °F 77.0 °F 29.9 in SSE 17 mph 17 mph 59% 0.000 in 752.00 W/m2
16:34 93.0 °F 77.0 °F 29.9 in SSE 12 mph 16 mph 59% 0.000 in 691.00 W/m2
16:39 93.0 °F 77.0 °F 29.9 in SSE 12 mph 16 mph 59% 0.000 in 686.00 W/m2
16:44 93.0 °F 77.0 °F 29.9 in SE 14 mph 14 mph 59% 0.000 in 663.00 W/m2
16:49 93.0 °F 77.0 °F 29.9 in SE 11 mph 12 mph 58% 0.000 in 647.00 W/m2
16:54 93.0 °F 77.0 °F 29.9 in SSE 15 mph 18 mph 59% 0.000 in 617.00 W/m2
16:59 93.0 °F 77.0 °F 29.9 in SE 13 mph 15 mph 60% 0.000 in 608.00 W/m2
17:04 93.0 °F 77.0 °F 29.9 in SE 12 mph 16 mph 60% 0.000 in 608.00 W/m2
17:09 93.0 °F 77.0 °F 29.9 in SE 20 mph 20 mph 60% 0.000 in 580.00 W/m2
17:14 93.0 °F 77.0 °F 29.9 in SE 21 mph 21 mph 60% 0.000 in 541.00 W/m2
17:19 92.0 °F 77.0 °F 29.9 in SE 16 mph 16 mph 60% 0.000 in 515.00 W/m2
17:24 92.0 °F 77.0 °F 29.9 in SE 11 mph 16 mph 61% 0.000 in 515.00 W/m2
17:29 92.0 °F 77.0 °F 29.9 in SE 17 mph 17 mph 61% 0.000 in 489.00 W/m2
17:34 92.0 °F 77.0 °F 29.9 in SSE 13 mph 15 mph 61% 0.000 in 478.00 W/m2
17:39 92.0 °F 76.0 °F 29.9 in SSE 15 mph 16 mph 61% 0.000 in 206.00 W/m2
17:44 91.0 °F 76.0 °F 29.9 in SSE 13 mph 16 mph 62% 0.000 in 418.00 W/m2
17:49 91.0 °F 76.0 °F 29.9 in SE 12 mph 14 mph 62% 0.000 in 431.00 W/m2
17:54 91.0 °F 77.0 °F 29.9 in SE 9 mph 13 mph 63% 0.000 in 422.00 W/m2
17:59 91.0 °F 77.0 °F 29.9 in SE 15 mph 15 mph 63% 0.000 in 422.00 W/m2
18:04 91.0 °F 76.0 °F 29.9 in SE 15 mph 15 mph 62% 0.000 in 353.00 W/m2
18:09 91.0 °F 77.0 °F 29.9 in SE 12 mph 14 mph 63% 0.000 in 313.00 W/m2
18:14 91.0 °F 77.0 °F 29.9 in SE 15 mph 15 mph 63% 0.000 in 299.00 W/m2
18:19 91.0 °F 76.0 °F 29.9 in SE 12 mph 15 mph 63% 0.000 in 264.00 W/m2
18:24 90.0 °F 76.0 °F 29.9 in SSE 13 mph 13 mph 63% 0.000 in 264.00 W/m2
18:29 90.0 °F 76.0 °F 29.9 in SE 11 mph 12 mph 64% 0.000 in 246.00 W/m2
18:34 90.0 °F 76.0 °F 29.9 in SE 12 mph 13 mph 64% 0.000 in 220.00 W/m2
18:39 90.0 °F 77.0 °F 29.9 in SE 15 mph 15 mph 65% 0.000 in 211.00 W/m2
18:44 89.0 °F 76.0 °F 29.9 in SE 14 mph 15 mph 65% 0.000 in 190.00 W/m2
18:49 89.0 °F 76.0 °F 29.9 in SE 16 mph 16 mph 65% 0.000 in 167.00 W/m2
18:54 89.0 °F 76.0 °F 29.9 in SE 13 mph 15 mph 66% 0.000 in 155.00 W/m2
18:59 89.0 °F 76.0 °F 29.9 in SSE 17 mph 17 mph 66% 0.000 in 137.00 W/m2
19:09 88.0 °F 76.0 °F 29.9 in SE 12 mph 12 mph 67% 0.000 in 62.00 W/m2
19:14 88.0 °F 76.0 °F 29.9 in SE 14 mph 14 mph 67% 0.000 in 56.00 W/m2
19:19 87.0 °F 76.0 °F 29.9 in SE 11 mph 13 mph 68% 0.000 in 54.00 W/m2
19:24 87.0 °F 76.0 °F 29.9 in SE 11 mph 11 mph 69% 0.000 in 44.00 W/m2
19:29 87.0 °F 76.0 °F 29.9 in SE 11 mph 11 mph 69% 0.000 in 39.00 W/m2
19:34 87.0 °F 76.0 °F 29.9 in SE 10 mph 10 mph 70% 0.000 in 33.00 W/m2
19:39 87.0 °F 76.0 °F 29.9 in SE 10 mph 12 mph 71% 0.000 in 32.00 W/m2
19:44 86.0 °F 76.0 °F 29.9 in SE 9 mph 9 mph 71% 0.000 in 23.00 W/m2
19:49 86.0 °F 76.0 °F 29.9 in SE 7 mph 8 mph 72% 0.000 in 16.00 W/m2
19:54 86.0 °F 76.0 °F 29.9 in SE 14 mph 14 mph 72% 0.000 in 12.00 W/m2
19:59 85.0 °F 75.0 °F 29.9 in SE 11 mph 11 mph 73% 0.000 in 9.00 W/m2
20:04 85.0 °F 75.0 °F 29.9 in SE 13 mph 13 mph 73% 0.000 in 5.00 W/m2
20:09 84.0 °F 75.0 °F 29.9 in SE 12 mph 17 mph 74% 0.000 in 0.00 W/m2
20:14 84.0 °F 75.0 °F 29.9 in SE 10 mph 12 mph 75% 0.000 in 0.00 W/m2
20:19 84.0 °F 75.0 °F 29.9 in SE 10 mph 13 mph 75% 0.000 in 0.00 W/m2
20:24 84.0 °F 75.0 °F 29.9 in SE 13 mph 13 mph 75% 0.000 in 0.00 W/m2
20:29 83.0 °F 74.0 °F 29.9 in SE 11 mph 14 mph 75% 0.000 in 0.00 W/m2
20:34 83.0 °F 74.0 °F 29.9 in SE 11 mph 13 mph 76% 0.000 in 0.00 W/m2
20:39 83.0 °F 74.0 °F 29.9 in SE 13 mph 13 mph 76% 0.000 in 0.00 W/m2
20:44 82.0 °F 74.0 °F 29.9 in SE 10 mph 10 mph 76% 0.000 in 0.00 W/m2
20:49 82.0 °F 74.0 °F 29.9 in SE 10 mph 13 mph 76% 0.000 in 0.00 W/m2
20:54 82.0 °F 74.0 °F 29.9 in SE 8 mph 8 mph 77% 0.000 in 0.00 W/m2
20:59 82.0 °F 74.0 °F 29.9 in SE 9 mph 12 mph 77% 0.000 in 0.00 W/m2
21:04 82.0 °F 74.0 °F 29.9 in SE 9 mph 10 mph 77% 0.000 in 0.00 W/m2
21:09 81.0 °F 73.0 °F 29.9 in SE 8 mph 10 mph 77% 0.000 in 0.00 W/m2
21:14 81.0 °F 74.0 °F 29.9 in SE 13 mph 13 mph 78% 0.000 in 0.00 W/m2
21:19 81.0 °F 74.0 °F 29.9 in SE 12 mph 14 mph 78% 0.000 in 0.00 W/m2
21:24 81.0 °F 73.0 °F 29.9 in SE 11 mph 14 mph 78% 0.000 in 0.00 W/m2
21:29 81.0 °F 73.0 °F 29.9 in SE 10 mph 12 mph 78% 0.000 in 0.00 W/m2
21:34 81.0 °F 73.0 °F 29.9 in SE 13 mph 13 mph 78% 0.000 in 0.00 W/m2
21:39 81.0 °F 73.0 °F 29.9 in SE 9 mph 13 mph 78% 0.000 in 0.00 W/m2
21:44 81.0 °F 73.0 °F 30.0 in SE 14 mph 14 mph 78% 0.000 in 0.00 W/m2
21:49 80.0 °F 73.0 °F 29.9 in SE 15 mph 15 mph 79% 0.000 in 0.00 W/m2
21:54 80.0 °F 73.0 °F 30.0 in SE 10 mph 12 mph 79% 0.000 in 0.00 W/m2
21:59 80.0 °F 73.0 °F 30.0 in SE 14 mph 14 mph 79% 0.000 in 0.00 W/m2
22:04 80.0 °F 73.0 °F 30.0 in SE 10 mph 10 mph 79% 0.000 in 0.00 W/m2
22:09 80.0 °F 73.0 °F 30.0 in SE 14 mph 14 mph 79% 0.000 in 0.00 W/m2
22:14 80.0 °F 73.0 °F 30.0 in SE 11 mph 12 mph 79% 0.000 in 0.00 W/m2
22:19 80.0 °F 73.0 °F 30.0 in SE 8 mph 14 mph 79% 0.000 in 0.00 W/m2
22:24 80.0 °F 73.0 °F 30.0 in SE 15 mph 16 mph 79% 0.000 in 0.00 W/m2
22:29 80.0 °F 73.0 °F 30.0 in SE 10 mph 16 mph 80% 0.000 in 0.00 W/m2
22:34 80.0 °F 73.0 °F 30.0 in SE 13 mph 13 mph 80% 0.000 in 0.00 W/m2
22:39 80.0 °F 73.0 °F 30.0 in SE 11 mph 11 mph 80% 0.000 in 0.00 W/m2
22:44 80.0 °F 73.0 °F 30.0 in SE 13 mph 13 mph 80% 0.000 in 0.00 W/m2
22:49 80.0 °F 73.0 °F 30.0 in SE 11 mph 13 mph 80% 0.000 in 0.00 W/m2
22:54 80.0 °F 73.0 °F 30.0 in SE 9 mph 10 mph 80% 0.000 in 0.00 W/m2
22:59 80.0 °F 73.0 °F 30.0 in SE 8 mph 11 mph 80% 0.000 in 0.00 W/m2
23:04 80.0 °F 73.0 °F 30.0 in SSE 9 mph 10 mph 81% 0.000 in 0.00 W/m2
23:09 80.0 °F 73.0 °F 30.0 in SE 8 mph 10 mph 81% 0.000 in 0.00 W/m2
23:14 80.0 °F 73.0 °F 30.0 in SE 7 mph 10 mph 81% 0.000 in 0.00 W/m2
23:19 80.0 °F 73.0 °F 30.0 in SE 8 mph 9 mph 81% 0.000 in 0.00 W/m2
23:24 80.0 °F 73.0 °F 30.0 in SE 8 mph 9 mph 81% 0.000 in 0.00 W/m2
23:29 79.0 °F 73.0 °F 30.0 in SE 10 mph 11 mph 81% 0.000 in 0.00 W/m2
23:34 79.0 °F 73.0 °F 30.0 in SE 9 mph 9 mph 81% 0.000 in 0.00 W/m2
23:39 79.0 °F 73.0 °F 30.0 in SE 13 mph 14 mph 81% 0.000 in 0.00 W/m2
23:44 79.0 °F 73.0 °F 30.0 in SE 11 mph 14 mph 81% 0.000 in 0.00 W/m2
23:49 79.0 °F 73.0 °F 30.0 in SE 10 mph 11 mph 81% 0.000 in 0.00 W/m2
23:54 79.0 °F 73.0 °F 30.0 in SE 8 mph 10 mph 81% 0.000 in 0.00 W/m2
23:59 79.0 °F 73.0 °F 30.0 in SE 10 mph 16 mph 81% 0.000 in 0.00 W/m2
Villages of Bridgestone, Spring, TX USA
Compliments of Weather Underground - 4 mb